Time;durP1;ratioP1;P1;durP2;ratioP2;P2;SDS_P1;SDS_P2;PMS_P1;PMS_P2;Temp;Humidity;BMP_temperature;BMP_pressure;BME280_temperature;BME280_humidity;BME280_pressure;Samples;Min_cycle;Max_cycle;Signal;HPM_P1;HPM_P2
2022/03/29 00:01:16;;;;;;;16.43;9.40;;;6.70;99.90;;;;;;8407992;28;20238;-61
2022/03/29 00:05:17;;;;;;;15.30;8.67;;;6.70;99.90;;;;;;8400465;28;20203;-61
2022/03/29 00:09:19;;;;;;;13.70;9.13;;;6.70;34.00;;;;;;8404139;28;20215;-62
2022/03/29 00:13:20;;;;;;;14.07;9.43;;;6.70;56.20;;;;;;8435248;28;20208;-61
2022/03/29 00:17:21;;;;;;;12.93;8.43;;;6.70;99.90;;;;;;8426748;28;20208;-61
2022/03/29 00:21:22;;;;;;;14.40;9.10;;;6.70;99.90;;;;;;8435409;28;20229;-61
2022/03/29 00:25:23;;;;;;;13.33;9.03;;;6.70;99.90;;;;;;8401305;28;20219;-63
2022/03/29 00:29:23;;;;;;;14.50;8.50;;;6.70;17.80;;;;;;8440149;28;20215;-62
2022/03/29 00:33:25;;;;;;;16.67;9.47;;;6.70;1.00;;;;;;8446162;28;20200;-61
2022/03/29 00:37:26;;;;;;;14.73;8.10;;;6.70;82.00;;;;;;8414294;28;20261;-61
2022/03/29 00:41:27;;;;;;;14.20;8.53;;;6.70;1.00;;;;;;8432360;28;20204;-61
2022/03/29 00:45:28;;;;;;;15.20;8.23;;;6.80;1.00;;;;;;8418243;28;20581;-62
2022/03/29 00:49:29;;;;;;;15.73;9.13;;;6.90;99.90;;;;;;8420528;28;20284;-62
2022/03/29 00:53:31;;;;;;;16.27;9.53;;;7.00;1.00;;;;;;8413978;28;20211;-63
2022/03/29 00:57:34;;;;;;;15.03;9.20;;;7.10;1.00;;;;;;8439696;28;20213;-62
2022/03/29 01:01:35;;;;;;;12.93;7.80;;;7.20;99.90;;;;;;8416478;28;20219;-62
2022/03/29 01:05:36;;;;;;;13.63;8.40;;;7.20;1.00;;;;;;8421236;28;20211;-61
2022/03/29 01:09:36;;;;;;;13.43;8.00;;;7.30;99.90;;;;;;8407680;28;20256;-62
2022/03/29 01:13:38;;;;;;;12.40;7.90;;;7.20;1.00;;;;;;8417596;28;20233;-61
2022/03/29 01:17:40;;;;;;;15.20;8.67;;;7.10;16.90;;;;;;8426753;28;20203;-61
2022/03/29 01:21:44;;;;;;;14.97;8.30;;;7.10;99.90;;;;;;8412889;28;20200;-61
2022/03/29 01:25:46;;;;;;;15.47;8.50;;;7.00;99.90;;;;;;8408786;28;20199;-63
2022/03/29 01:29:49;;;;;;;13.67;8.70;;;7.00;99.90;;;;;;8435015;28;20221;-62
2022/03/29 01:33:50;;;;;;;14.33;7.63;;;6.90;91.20;;;;;;8412518;28;20207;-61
2022/03/29 01:37:53;;;;;;;12.97;8.23;;;6.80;99.90;;;;;;8414430;28;20204;-62
2022/03/29 01:41:53;;;;;;;13.00;7.87;;;6.70;42.20;;;;;;8406683;28;20687;-67
2022/03/29 01:45:54;;;;;;;14.53;8.50;;;6.50;1.00;;;;;;8438385;28;20216;-61
2022/03/29 01:49:55;;;;;;;18.30;9.57;;;6.40;99.90;;;;;;8436744;28;20223;-62
2022/03/29 01:54:00;;;;;;;13.73;8.70;;;6.30;99.90;;;;;;8406284;28;20198;-63
2022/03/29 01:58:00;;;;;;;18.70;8.90;;;6.20;1.00;;;;;;8412528;28;20203;-61
2022/03/29 02:02:01;;;;;;;12.80;7.93;;;6.00;1.00;;;;;;8426447;28;20324;-60
2022/03/29 02:06:02;;;;;;;15.27;8.33;;;5.80;1.00;;;;;;8416668;28;20199;-62
2022/03/29 02:10:05;;;;;;;16.03;8.60;;;5.70;1.00;;;;;;8403685;28;20257;-61
2022/03/29 02:14:06;;;;;;;13.03;7.53;;;5.60;1.00;;;;;;8430385;28;20228;-61
2022/03/29 02:18:08;;;;;;;14.10;8.40;;;5.40;99.90;;;;;;8423564;28;20367;-64
2022/03/29 02:22:08;;;;;;;14.80;8.77;;;5.30;99.90;;;;;;8414473;28;20208;-61
2022/03/29 02:26:09;;;;;;;13.60;8.43;;;5.20;99.90;;;;;;8405139;28;20210;-62
2022/03/29 02:30:13;;;;;;;11.80;7.83;;;5.10;99.90;;;;;;8442296;28;20215;-63
2022/03/29 02:34:13;;;;;;;13.80;7.50;;;4.90;99.90;;;;;;8428341;28;20271;-62
2022/03/29 02:38:17;;;;;;;12.87;7.73;;;4.60;1.00;;;;;;8403099;28;20603;-61
2022/03/29 02:42:18;;;;;;;13.70;7.73;;;4.30;1.00;;;;;;8434287;28;20204;-62
2022/03/29 02:46:19;;;;;;;15.53;9.03;;;4.10;99.90;;;;;;8447216;28;20198;-62
2022/03/29 02:50:21;;;;;;;13.47;8.17;;;4.10;99.90;;;;;;8429730;28;20254;-61
2022/03/29 02:54:22;;;;;;;16.03;9.17;;;4.30;99.90;;;;;;8428802;28;20279;-67
2022/03/29 02:58:23;;;;;;;20.57;9.97;;;4.50;99.90;;;;;;8426365;28;20207;-61
2022/03/29 03:02:23;;;;;;;17.27;9.73;;;4.70;99.90;;;;;;8434337;28;20207;-62
2022/03/29 03:06:24;;;;;;;21.40;9.73;;;4.80;99.90;;;;;;8454624;28;20212;-61
2022/03/29 03:10:25;;;;;;;16.10;8.80;;;4.80;99.90;;;;;;8414538;28;20224;-62
2022/03/29 03:14:26;;;;;;;14.13;8.60;;;4.90;99.90;;;;;;8421870;28;20204;-62
2022/03/29 03:18:27;;;;;;;13.90;8.33;;;4.90;99.90;;;;;;8438841;28;20272;-64
2022/03/29 03:22:28;;;;;;;16.67;9.53;;;4.90;99.90;;;;;;8442112;28;20239;-62
2022/03/29 03:26:29;;;;;;;14.40;8.40;;;5.10;99.90;;;;;;8410758;28;20212;-61
2022/03/29 03:30:30;;;;;;;15.63;8.40;;;5.10;1.00;;;;;;8447477;28;20235;-62
2022/03/29 03:34:30;;;;;;;16.03;9.23;;;5.20;23.70;;;;;;8420844;28;20198;-62
2022/03/29 03:38:31;;;;;;;18.20;9.77;;;5.10;99.90;;;;;;8414766;28;20249;-62
2022/03/29 03:42:32;;;;;;;17.33;9.60;;;5.10;99.90;;;;;;8410738;28;20196;-63
2022/03/29 03:46:33;;;;;;;19.90;10.70;;;5.00;99.90;;;;;;8425041;28;20206;-73
2022/03/29 03:50:34;;;;;;;15.53;9.30;;;5.00;88.30;;;;;;8436271;28;20227;-61
2022/03/29 03:54:35;;;;;;;17.53;8.77;;;4.90;21.10;;;;;;8427903;28;20229;-62
2022/03/29 03:58:36;;;;;;;17.83;9.80;;;4.80;99.90;;;;;;8414009;28;20208;-61
2022/03/29 04:02:37;;;;;;;20.63;9.53;;;4.80;99.90;;;;;;8399895;28;20199;-63
2022/03/29 04:06:38;;;;;;;20.00;10.33;;;4.90;99.90;;;;;;8401042;28;20201;-62
2022/03/29 04:10:40;;;;;;;19.93;11.17;;;4.90;99.90;;;;;;8409278;28;20224;-59
2022/03/29 04:14:41;;;;;;;24.27;11.30;;;4.90;99.90;;;;;;8431867;28;20216;-62
2022/03/29 04:18:42;;;;;;;18.70;10.70;;;4.90;99.90;;;;;;8409112;28;20204;-62
2022/03/29 04:22:44;;;;;;;23.77;12.50;;;4.90;99.90;;;;;;8409110;28;20210;-61
2022/03/29 04:26:44;;;;;;;26.27;12.83;;;4.90;99.90;;;;;;8421323;28;20228;-61
2022/03/29 04:30:46;;;;;;;27.10;13.40;;;4.90;99.90;;;;;;8400050;28;20293;-63
2022/03/29 04:34:48;;;;;;;23.30;12.73;;;4.90;46.40;;;;;;8430646;28;20319;-61
2022/03/29 04:38:49;;;;;;;22.27;12.00;;;4.90;24.70;;;;;;8424358;28;20196;-61
2022/03/29 04:42:51;;;;;;;22.90;13.07;;;4.90;24.40;;;;;;8419048;28;20271;-61
2022/03/29 04:46:52;;;;;;;29.37;14.20;;;4.90;89.00;;;;;;8408822;28;20197;-62
2022/03/29 04:50:53;;;;;;;24.30;13.93;;;5.00;99.90;;;;;;8431275;28;20226;-63
2022/03/29 04:54:54;;;;;;;26.43;13.77;;;5.00;99.90;;;;;;8420586;28;20206;-61
2022/03/29 04:58:56;;;;;;;23.07;13.13;;;5.10;1.00;;;;;;8426373;28;20200;-61
2022/03/29 05:02:56;;;;;;;23.53;13.30;;;5.20;1.00;;;;;;8417495;28;20278;-62
2022/03/29 05:06:57;;;;;;;26.77;13.97;;;5.20;99.90;;;;;;8415134;28;20204;-61
2022/03/29 05:10:58;;;;;;;25.70;14.53;;;5.20;99.90;;;;;;8430506;28;20280;-62
2022/03/29 05:14:59;;;;;;;29.43;15.00;;;5.20;99.90;;;;;;8401814;28;20203;-61
2022/03/29 05:19:00;;;;;;;24.60;13.20;;;5.30;99.90;;;;;;8426431;28;20207;-61
2022/03/29 05:23:02;;;;;;;23.87;13.33;;;5.40;1.00;;;;;;8417679;28;20289;-61
2022/03/29 05:27:03;;;;;;;25.87;13.73;;;5.50;99.90;;;;;;8426010;28;20208;-61
2022/03/29 05:31:04;;;;;;;21.47;13.00;;;5.60;99.90;;;;;;8418745;28;20220;-61
2022/03/29 05:35:08;;;;;;;24.03;12.97;;;5.70;1.00;;;;;;8414473;28;20252;-73
2022/03/29 05:39:08;;;;;;;22.17;12.70;;;5.60;99.90;;;;;;8406123;28;20210;-60
2022/03/29 05:43:11;;;;;;;21.73;12.93;;;5.60;1.00;;;;;;8438361;28;20208;-60
2022/03/29 05:51:31;;;;;;;26.93;14.50;;;5.60;99.90;;;;;;8430680;28;20229;-61
2022/03/29 05:55:32;;;;;;;29.67;14.73;;;5.60;97.80;;;;;;8418643;28;20219;-60
2022/03/29 05:59:33;;;;;;;26.83;14.70;;;5.60;32.10;;;;;;8423489;28;20276;-62
2022/03/29 06:03:34;;;;;;;31.50;16.93;;;5.60;99.90;;;;;;8408573;28;20213;-63
2022/03/29 06:07:34;;;;;;;31.27;16.80;;;5.60;99.90;;;;;;8396905;28;20295;-62
2022/03/29 06:11:35;;;;;;;32.57;16.90;;;5.60;97.80;;;;;;8408128;28;20269;-61
2022/03/29 06:15:36;;;;;;;27.90;15.90;;;5.60;99.90;;;;;;8418874;28;20240;-62
2022/03/29 06:19:37;;;;;;;31.83;17.07;;;5.50;99.90;;;;;;8420788;28;20216;-61
2022/03/29 06:23:38;;;;;;;36.87;18.17;;;5.50;1.00;;;;;;8399067;28;20211;-62
2022/03/29 06:27:39;;;;;;;43.77;22.23;;;5.40;1.00;;;;;;8407538;28;20207;-61
2022/03/29 06:31:40;;;;;;;44.97;24.10;;;5.30;99.90;;;;;;8430233;28;20212;-65
2022/03/29 06:35:41;;;;;;;43.03;21.80;;;5.20;1.00;;;;;;8430927;28;20204;-62
2022/03/29 06:39:42;;;;;;;43.37;20.70;;;5.10;1.00;;;;;;8418202;28;20206;-60
2022/03/29 06:43:43;;;;;;;49.33;22.80;;;5.10;99.90;;;;;;8430422;28;20203;-60
2022/03/29 06:47:44;;;;;;;45.53;22.77;;;5.10;99.90;;;;;;8418927;28;20233;-72
2022/03/29 06:51:47;;;;;;;44.93;22.20;;;5.20;1.00;;;;;;8412967;28;20245;-62
2022/03/29 06:55:50;;;;;;;46.83;21.73;;;5.20;96.60;;;;;;8416234;28;20215;-60
2022/03/29 06:59:51;;;;;;;42.33;21.13;;;5.20;1.00;;;;;;8409682;28;20211;-61
2022/03/29 07:03:52;;;;;;;35.80;19.33;;;5.20;99.90;;;;;;8418180;28;20257;-61
2022/03/29 07:07:53;;;;;;;30.70;16.47;;;5.40;1.00;;;;;;8395287;28;20212;-61
2022/03/29 07:11:53;;;;;;;29.33;15.77;;;5.60;99.90;;;;;;8426171;28;20207;-63
2022/03/29 07:15:54;;;;;;;27.03;16.67;;;5.70;99.90;;;;;;8441516;28;20204;-62
2022/03/29 07:19:55;;;;;;;27.43;15.93;;;5.70;99.90;;;;;;8432909;28;20195;-61
2022/03/29 07:23:56;;;;;;;26.30;14.27;;;5.80;99.90;;;;;;8413731;28;20206;-63
2022/03/29 07:27:57;;;;;;;24.37;14.33;;;5.90;1.00;;;;;;8432374;28;20314;-61
2022/03/29 07:31:58;;;;;;;21.87;13.33;;;6.00;99.90;;;;;;8434944;28;20278;-61
2022/03/29 07:35:59;;;;;;;24.10;14.70;;;5.80;53.90;;;;;;8432595;28;20283;-62
2022/03/29 07:39:59;;;;;;;21.63;14.03;;;5.70;99.90;;;;;;8409539;28;20200;-61
2022/03/29 07:44:02;;;;;;;19.97;12.50;;;5.70;86.70;;;;;;8423873;28;20493;-63
2022/03/29 07:48:04;;;;;;;23.20;12.93;;;5.70;99.90;;;;;;8411224;28;20300;-60
2022/03/29 07:52:05;;;;;;;23.33;13.90;;;5.70;52.10;;;;;;8435940;28;20231;-61
2022/03/29 07:56:07;;;;;;;23.93;14.60;;;5.70;1.00;;;;;;8405056;28;20214;-60
2022/03/29 08:04:29;;;;;;;27.80;16.07;;;5.50;1.00;;;;;;8444875;28;20266;-61
2022/03/29 08:08:32;;;;;;;23.87;15.83;;;5.50;99.90;;;;;;8406120;28;20216;-61
2022/03/29 08:12:32;;;;;;;26.60;15.37;;;5.70;99.90;;;;;;8432585;28;20342;-63
2022/03/29 08:16:33;;;;;;;29.97;16.83;;;5.70;99.90;;;;;;8443400;28;20202;-62
2022/03/29 08:20:36;;;;;;;30.10;16.50;;;5.70;99.90;;;;;;8430454;28;20207;-61
2022/03/29 08:24:36;;;;;;;28.37;16.33;;;5.70;99.90;;;;;;8423444;28;20208;-62
2022/03/29 08:28:37;;;;;;;28.57;15.70;;;5.80;1.00;;;;;;8417512;28;20269;-61
2022/03/29 08:32:39;;;;;;;27.77;16.00;;;5.70;99.90;;;;;;8432415;28;20502;-61
2022/03/29 08:36:40;;;;;;;24.03;14.10;;;5.60;1.00;;;;;;8405967;28;20205;-72
2022/03/29 08:40:44;;;;;;;25.13;14.37;;;5.70;99.90;;;;;;8424821;28;20204;-63
2022/03/29 08:44:46;;;;;;;24.37;16.03;;;5.70;42.00;;;;;;8408415;28;20325;-62
2022/03/29 08:48:49;;;;;;;27.53;16.63;;;5.60;1.00;;;;;;8440877;28;20239;-62
2022/03/29 08:52:54;;;;;;;30.23;16.97;;;5.70;1.00;;;;;;8420332;28;20212;-62
2022/03/29 08:56:55;;;;;;;29.00;16.80;;;5.60;1.00;;;;;;8413641;28;20257;-62
2022/03/29 09:00:56;;;;;;;28.23;16.00;;;5.60;39.40;;;;;;8428746;28;20214;-61
2022/03/29 09:05:07;;;;;;;24.10;15.03;;;5.70;1.00;;;;;;8407532;28;20206;-61
2022/03/29 09:09:40;;;;;;;26.30;15.20;;;5.90;1.00;;;;;;8398786;28;20229;-64
2022/03/29 09:13:41;;;;;;;25.63;15.03;;;6.00;1.00;;;;;;8433307;28;20259;-62
2022/03/29 09:17:47;;;;;;;26.20;14.43;;;6.00;99.90;;;;;;8404772;28;20286;-61
2022/03/29 09:21:47;;;;;;;29.97;16.73;;;5.80;99.90;;;;;;8407640;28;20224;-61
2022/03/29 09:25:49;;;;;;;29.27;16.93;;;5.90;99.90;;;;;;8403778;28;20207;-60
2022/03/29 09:30:06;;;;;;;27.73;16.30;;;6.00;99.90;;;;;;8441720;28;20222;-61
2022/03/29 09:34:18;;;;;;;30.23;16.57;;;6.20;99.90;;;;;;8415157;28;20205;-62
2022/03/29 09:38:36;;;;;;;27.67;15.00;;;6.10;29.20;;;;;;8422263;28;20208;-61
2022/03/29 09:42:37;;;;;;;25.40;15.77;;;6.50;99.90;;;;;;8414343;28;20210;-61
2022/03/29 09:46:55;;;;;;;23.20;15.37;;;6.90;99.90;;;;;;8422292;28;20199;-68
2022/03/29 09:51:15;;;;;;;23.77;15.03;;;7.20;99.90;;;;;;8414075;28;20224;-62
2022/03/29 09:55:21;;;;;;;24.80;15.00;;;7.20;1.00;;;;;;8419347;28;20215;-62
2022/03/29 09:59:22;;;;;;;26.50;16.40;;;7.00;99.90;;;;;;8432578;28;20294;-61
2022/03/29 10:03:25;;;;;;;26.13;16.10;;;6.60;82.40;;;;;;8431309;28;20230;-62
2022/03/29 10:07:26;;;;;;;23.63;15.43;;;6.80;92.00;;;;;;8427242;28;20200;-72
2022/03/29 10:11:27;;;;;;;22.37;14.77;;;7.10;99.90;;;;;;8427949;28;20224;-64
2022/03/29 10:15:28;;;;;;;29.23;16.17;;;7.10;99.90;;;;;;8418779;28;20302;-61
2022/03/29 10:19:29;;;;;;;23.70;14.17;;;7.10;99.90;;;;;;8432256;28;20253;-62
2022/03/29 10:23:31;;;;;;;24.60;15.47;;;7.20;99.90;;;;;;8423846;28;20232;-62
2022/03/29 10:27:32;;;;;;;22.93;14.57;;;7.70;1.00;;;;;;8406115;28;20205;-61
2022/03/29 10:31:41;;;;;;;21.87;13.90;;;8.10;99.90;;;;;;8449374;28;20219;-61
2022/03/29 10:36:07;;;;;;;23.30;14.47;;;8.80;99.90;;;;;;8425754;28;20207;-63
2022/03/29 10:40:09;;;;;;;23.63;15.37;;;8.80;1.00;;;;;;8403667;28;20215;-61
2022/03/29 10:44:14;;;;;;;21.10;14.13;;;8.70;1.00;;;;;;8427283;28;20219;-63
2022/03/29 10:48:17;;;;;;;21.53;14.07;;;9.00;99.90;;;;;;8404211;28;20215;-62
2022/03/29 10:52:21;;;;;;;21.93;13.43;;;9.00;99.90;;;;;;8424529;28;20218;-62
2022/03/29 10:56:26;;;;;;;22.07;13.60;;;8.90;1.00;;;;;;8436704;28;20208;-60
2022/03/29 11:00:31;;;;;;;24.53;16.30;;;8.60;1.00;;;;;;8428785;28;20217;-63
2022/03/29 11:04:31;;;;;;;24.97;17.37;;;9.10;1.00;;;;;;8401900;28;20230;-60
2022/03/29 11:08:40;;;;;;;28.17;17.47;;;9.40;99.90;;;;;;8419586;28;20310;-62
2022/03/29 11:12:56;;;;;;;24.83;15.33;;;9.80;99.90;;;;;;8433612;28;20205;-60
2022/03/29 11:17:09;;;;;;;26.57;17.43;;;10.30;99.90;;;;;;8438927;28;20204;-62
2022/03/29 11:21:37;;;;;;;25.93;15.77;;;10.50;99.90;;;;;;8417219;28;20203;-63
2022/03/29 11:25:43;;;;;;;27.20;16.53;;;10.60;83.40;;;;;;8438007;28;20201;-62
2022/03/29 11:29:45;;;;;;;27.47;17.07;;;10.70;77.40;;;;;;8412366;28;20227;-62
2022/03/29 11:33:49;;;;;;;26.37;17.83;;;11.00;7.50;;;;;;8429457;28;20286;-62
2022/03/29 11:37:51;;;;;;;30.00;18.13;;;10.60;1.00;;;;;;8430334;28;20232;-61
2022/03/29 11:41:53;;;;;;;28.50;17.67;;;9.90;99.90;;;;;;8409242;28;20212;-61
2022/03/29 11:45:56;;;;;;;34.90;21.63;;;9.20;99.90;;;;;;8422055;28;20196;-72
2022/03/29 11:49:57;;;;;;;33.53;20.47;;;9.40;99.90;;;;;;8418969;28;20306;-61
2022/03/29 11:53:58;;;;;;;32.10;19.97;;;9.60;99.90;;;;;;8440852;28;20192;-63
2022/03/29 11:57:58;;;;;;;29.50;19.40;;;9.60;99.90;;;;;;8416754;28;20204;-63
2022/03/29 12:02:05;;;;;;;28.70;19.20;;;9.90;99.90;;;;;;8420268;28;20207;-61
2022/03/29 12:06:28;;;;;;;29.60;19.60;;;10.20;99.90;;;;;;8433494;28;20207;-62
2022/03/29 12:10:31;;;;;;;31.33;19.87;;;10.40;99.90;;;;;;8405884;28;20251;-61
2022/03/29 12:14:32;;;;;;;30.47;19.23;;;10.00;99.90;;;;;;8414984;28;20295;-61
2022/03/29 12:18:41;;;;;;;26.80;17.77;;;9.60;99.90;;;;;;8434294;28;20223;-61
2022/03/29 12:22:42;;;;;;;30.27;18.87;;;10.00;99.90;;;;;;8421071;28;20209;-63
2022/03/29 12:27:05;;;;;;;24.93;17.63;;;10.70;41.30;;;;;;8407273;28;20208;-62
2022/03/29 12:31:15;;;;;;;25.03;17.23;;;11.10;1.00;;;;;;8432429;28;20219;-60
2022/03/29 12:35:18;;;;;;;28.27;19.03;;;11.10;1.00;;;;;;8437137;28;20200;-61
2022/03/29 12:39:19;;;;;;;28.27;18.93;;;10.70;1.00;;;;;;8411231;28;20200;-63
2022/03/29 12:43:25;;;;;;;25.57;18.73;;;10.60;36.80;;;;;;8439406;28;20210;-61
2022/03/29 12:47:27;;;;;;;24.43;17.33;;;9.80;99.90;;;;;;8438312;28;20414;-62
2022/03/29 12:51:34;;;;;;;25.33;18.07;;;10.10;52.30;;;;;;8433094;28;20220;-61
2022/03/29 12:55:35;;;;;;;26.80;17.87;;;10.20;6.50;;;;;;8435547;28;20201;-61
2022/03/29 12:59:37;;;;;;;23.87;17.10;;;10.70;1.00;;;;;;8423360;28;20300;-61
2022/03/29 13:03:44;;;;;;;25.33;18.40;;;11.10;1.00;;;;;;8451082;28;20204;-62
2022/03/29 13:07:49;;;;;;;27.60;17.93;;;10.90;1.00;;;;;;8445365;28;20204;-60
2022/03/29 13:12:14;;;;;;;26.23;18.37;;;10.30;1.00;;;;;;8409521;28;20432;-60
2022/03/29 13:16:22;;;;;;;24.67;16.60;;;10.20;1.00;;;;;;8423272;28;20200;-61
2022/03/29 13:20:25;;;;;;;20.87;15.43;;;10.20;1.00;;;;;;8407013;28;20299;-62
2022/03/29 13:24:36;;;;;;;21.13;15.30;;;10.40;1.00;;;;;;8424708;28;20251;-61
2022/03/29 13:28:38;;;;;;;23.33;14.87;;;10.30;1.00;;;;;;8414081;28;20214;-62
2022/03/29 13:32:39;;;;;;;20.67;14.20;;;9.70;1.00;;;;;;8441472;28;20208;-62
2022/03/29 13:36:41;;;;;;;25.80;14.53;;;9.70;8.40;;;;;;8434246;28;20207;-61
2022/03/29 13:40:41;;;;;;;21.23;14.97;;;9.40;1.00;;;;;;8407611;28;20260;-62
2022/03/29 13:44:44;;;;;;;26.40;15.80;;;9.30;34.00;;;;;;8413706;28;20252;-63
2022/03/29 13:48:46;;;;;;;23.90;15.70;;;9.20;99.90;;;;;;8438222;28;20212;-63
2022/03/29 13:52:47;;;;;;;20.30;14.53;;;9.20;99.90;;;;;;8430585;28;20285;-64
2022/03/29 13:56:48;;;;;;;20.17;13.53;;;9.40;99.90;;;;;;8412299;28;20239;-64
2022/03/29 14:00:48;;;;;;;21.07;14.23;;;9.60;23.20;;;;;;8445742;28;20233;-61
2022/03/29 14:04:49;;;;;;;21.23;15.47;;;9.70;1.00;;;;;;8422849;28;20200;-62
2022/03/29 14:08:50;;;;;;;23.57;14.80;;;9.50;1.00;;;;;;8423008;28;20398;-63
2022/03/29 14:12:51;;;;;;;23.40;15.20;;;9.30;43.80;;;;;;8414445;28;20211;-62
2022/03/29 14:16:52;;;;;;;20.53;15.43;;;9.80;1.00;;;;;;8437332;28;20546;-62
2022/03/29 14:20:55;;;;;;;21.20;15.33;;;9.80;1.00;;;;;;8409955;28;20211;-63
2022/03/29 14:24:56;;;;;;;20.03;14.27;;;9.70;1.00;;;;;;8424486;28;20229;-62
2022/03/29 14:28:59;;;;;;;22.40;15.43;;;9.70;1.00;;;;;;8418364;28;20207;-62
2022/03/29 14:33:00;;;;;;;19.70;13.83;;;9.70;1.00;;;;;;8444708;28;20280;-60
2022/03/29 14:37:01;;;;;;;21.03;15.97;;;9.70;1.00;;;;;;8409308;28;20208;-61
2022/03/29 14:41:02;;;;;;;20.33;14.67;;;9.80;1.00;;;;;;8427417;28;20207;-61
2022/03/29 14:45:04;;;;;;;20.27;14.43;;;9.70;1.00;;;;;;8430419;28;20298;-62
2022/03/29 14:49:06;;;;;;;16.30;12.70;;;9.80;1.00;;;;;;8416371;28;20298;-61
2022/03/29 14:53:07;;;;;;;23.30;16.00;;;10.10;1.00;;;;;;8413560;28;20220;-63
2022/03/29 14:57:08;;;;;;;24.00;15.73;;;10.20;1.00;;;;;;8403437;28;20219;-63
2022/03/29 15:01:09;;;;;;;18.43;13.90;;;10.20;1.00;;;;;;8397038;28;20205;-63
2022/03/29 15:05:10;;;;;;;19.73;15.03;;;10.10;1.00;;;;;;8395262;28;20204;-61
2022/03/29 15:09:11;;;;;;;19.70;15.07;;;10.20;1.00;;;;;;8394742;28;20333;-61
2022/03/29 15:13:13;;;;;;;25.40;15.20;;;10.20;1.00;;;;;;8433470;28;20208;-68
2022/03/29 15:17:15;;;;;;;19.83;13.90;;;9.90;1.00;;;;;;8432908;28;20265;-62
2022/03/29 15:21:16;;;;;;;20.73;15.07;;;10.00;1.00;;;;;;8419022;28;20200;-61
2022/03/29 15:25:17;;;;;;;17.93;14.73;;;10.00;1.00;;;;;;8413794;28;20214;-61
2022/03/29 15:29:18;;;;;;;19.50;15.00;;;9.90;1.00;;;;;;8419110;28;20203;-60
2022/03/29 15:33:19;;;;;;;20.03;15.17;;;9.80;1.00;;;;;;8422637;28;20690;-61
2022/03/29 15:37:20;;;;;;;19.83;12.53;;;9.60;1.00;;;;;;8424770;28;20214;-61
2022/03/29 15:41:21;;;;;;;24.53;15.70;;;9.60;1.00;;;;;;8409617;28;20234;-62
2022/03/29 15:45:22;;;;;;;17.47;13.77;;;9.60;1.00;;;;;;8431007;28;20371;-61
2022/03/29 15:49:23;;;;;;;22.47;15.10;;;9.50;1.00;;;;;;8422672;28;20231;-62
2022/03/29 15:53:24;;;;;;;22.47;15.10;;;9.50;10.00;;;;;;8426301;28;20206;-60
2022/03/29 15:57:26;;;;;;;17.77;14.17;;;9.40;35.60;;;;;;8427214;28;20209;-61
2022/03/29 16:01:27;;;;;;;18.70;14.13;;;9.20;49.30;;;;;;8418902;28;20273;-64
2022/03/29 16:05:28;;;;;;;18.27;14.27;;;9.00;94.50;;;;;;8399979;28;20208;-59
2022/03/29 16:09:31;;;;;;;16.80;13.30;;;9.00;99.90;;;;;;8419489;28;20228;-63
2022/03/29 16:13:32;;;;;;;19.30;16.03;;;9.00;99.90;;;;;;8417381;28;20208;-61
2022/03/29 16:17:33;;;;;;;17.43;13.47;;;8.90;99.90;;;;;;8433788;28;20282;-61
2022/03/29 16:21:35;;;;;;;18.20;13.93;;;8.90;99.90;;;;;;8414012;28;20256;-62
2022/03/29 16:25:36;;;;;;;19.83;14.37;;;8.90;99.90;;;;;;8420289;28;20224;-62
2022/03/29 16:29:38;;;;;;;23.97;15.70;;;8.80;99.90;;;;;;8424660;28;20229;-61
2022/03/29 16:33:38;;;;;;;18.60;14.87;;;8.70;99.90;;;;;;8444618;28;20204;-63
2022/03/29 16:37:39;;;;;;;17.53;14.23;;;8.60;99.90;;;;;;8416103;28;20303;-61
2022/03/29 16:41:41;;;;;;;16.67;14.00;;;8.50;99.90;;;;;;8413544;28;20473;-60
2022/03/29 16:45:42;;;;;;;17.73;13.53;;;8.40;99.90;;;;;;8421225;28;20452;-61
2022/03/29 16:49:43;;;;;;;18.60;15.03;;;8.20;99.90;;;;;;8413849;28;20236;-60
2022/03/29 16:53:45;;;;;;;18.13;14.07;;;8.10;99.90;;;;;;8439380;28;20203;-61
2022/03/29 16:57:47;;;;;;;21.17;15.07;;;7.90;99.90;;;;;;8412837;28;20321;-61
2022/03/29 17:01:48;;;;;;;23.50;14.23;;;7.80;1.00;;;;;;8403881;28;20215;-61
2022/03/29 17:05:49;;;;;;;24.30;15.87;;;7.60;1.00;;;;;;8406338;28;20204;-61
2022/03/29 17:09:52;;;;;;;25.90;15.20;;;7.40;1.00;;;;;;8411859;28;20258;-62
2022/03/29 17:13:52;;;;;;;21.67;15.40;;;7.10;72.30;;;;;;8424419;28;20238;-61
2022/03/29 17:17:53;;;;;;;25.20;16.63;;;7.00;99.90;;;;;;8417537;28;20215;-61
2022/03/29 17:21:54;;;;;;;22.93;15.53;;;6.80;99.90;;;;;;8409903;28;20212;-61
2022/03/29 17:25:55;;;;;;;24.57;15.57;;;6.50;99.90;;;;;;8415599;28;20235;-61
2022/03/29 17:29:56;;;;;;;23.77;15.80;;;6.30;1.00;;;;;;8408608;28;20220;-61
2022/03/29 17:34:01;;;;;;;27.13;16.73;;;6.10;1.00;;;;;;8406123;28;20210;-61
2022/03/29 17:38:03;;;;;;;24.70;17.30;;;5.90;99.90;;;;;;8405474;28;20212;-61
2022/03/29 17:42:05;;;;;;;29.97;16.97;;;5.70;99.90;;;;;;8408253;28;20298;-63
2022/03/29 17:46:05;;;;;;;29.13;17.90;;;5.60;99.90;;;;;;8414690;28;20240;-61
2022/03/29 17:50:07;;;;;;;27.20;17.30;;;5.50;97.00;;;;;;8419716;28;20641;-61
2022/03/29 17:54:08;;;;;;;25.73;16.13;;;5.40;99.90;;;;;;8420564;28;20297;-61
2022/03/29 17:58:09;;;;;;;26.13;16.60;;;5.30;99.90;;;;;;8408003;28;20532;-61
2022/03/29 18:02:10;;;;;;;26.23;16.20;;;5.10;99.90;;;;;;8412590;28;20281;-61
2022/03/29 18:06:12;;;;;;;22.43;14.07;;;5.00;1.00;;;;;;8417770;28;20212;-63
2022/03/29 18:10:13;;;;;;;28.67;17.40;;;4.80;1.00;;;;;;8428486;28;20303;-63
2022/03/29 18:14:14;;;;;;;30.97;19.83;;;4.60;99.90;;;;;;8445200;28;20205;-61
2022/03/29 18:18:15;;;;;;;33.43;20.77;;;4.50;99.90;;;;;;8423015;28;20208;-61
2022/03/29 18:22:16;;;;;;;33.43;20.77;;;4.50;99.90;;;;;;8415850;28;20218;-74
2022/03/29 18:26:18;;;;;;;42.47;22.97;;;4.40;1.00;;;;;;8423225;28;20200;-62
2022/03/29 18:30:20;;;;;;;35.37;20.53;;;4.40;1.00;;;;;;8416742;28;20223;-61
2022/03/29 18:34:21;;;;;;;34.67;21.40;;;4.40;1.00;;;;;;8415027;28;20220;-63
2022/03/29 18:38:24;;;;;;;37.40;22.17;;;4.40;99.90;;;;;;8411658;28;20208;-62
2022/03/29 18:42:25;;;;;;;35.57;21.83;;;4.40;99.90;;;;;;8430500;28;20308;-61
2022/03/29 18:46:25;;;;;;;35.90;22.13;;;4.50;99.90;;;;;;8439954;28;20208;-62
2022/03/29 18:50:27;;;;;;;34.60;20.80;;;4.40;1.00;;;;;;8406076;28;20250;-63
2022/03/29 18:54:28;;;;;;;35.53;22.00;;;4.40;1.00;;;;;;8403534;28;20208;-61
2022/03/29 18:58:29;;;;;;;35.50;21.37;;;4.40;99.90;;;;;;8436444;28;20304;-61
2022/03/29 19:02:30;;;;;;;39.40;23.17;;;4.30;91.90;;;;;;8415268;28;20215;-60
2022/03/29 19:06:31;;;;;;;39.50;24.43;;;4.30;99.90;;;;;;8429584;28;20402;-61
2022/03/29 19:10:32;;;;;;;43.53;24.53;;;4.30;1.00;;;;;;8418425;28;20231;-61
2022/03/29 19:14:33;;;;;;;42.67;25.40;;;4.30;1.00;;;;;;8412984;28;20204;-62
2022/03/29 19:18:34;;;;;;;40.80;23.73;;;4.40;22.00;;;;;;8412026;28;20216;-61
2022/03/29 19:22:35;;;;;;;40.33;25.43;;;4.50;99.90;;;;;;8415022;28;20215;-61
2022/03/29 19:26:36;;;;;;;41.50;23.87;;;4.50;99.90;;;;;;8435847;28;20636;-61
2022/03/29 19:30:40;;;;;;;41.17;24.37;;;4.50;99.90;;;;;;8424146;28;20232;-61
2022/03/29 19:34:41;;;;;;;43.13;25.40;;;4.50;99.90;;;;;;8410167;28;20220;-62
2022/03/29 19:39:27;;;;;;;41.20;23.37;;;4.40;99.90;;;;;;8412792;28;20560;-62
2022/03/29 19:43:54;;;;;;;40.27;23.07;;;4.40;99.90;;;;;;8414345;28;20210;-61
2022/03/29 19:47:55;;;;;;;35.07;21.77;;;4.30;99.90;;;;;;8434412;28;20286;-61
2022/03/29 19:51:56;;;;;;;35.97;22.00;;;4.30;99.90;;;;;;8419141;28;20382;-61
2022/03/29 19:55:57;;;;;;;38.63;22.10;;;4.20;1.00;;;;;;8423672;28;20262;-62
2022/03/29 19:59:58;;;;;;;37.53;20.33;;;4.20;99.90;;;;;;8424962;28;20309;-61
2022/03/29 20:03:59;;;;;;;36.43;21.37;;;4.20;99.90;;;;;;8423424;28;20210;-61
2022/03/29 20:08:00;;;;;;;40.77;21.77;;;4.20;1.00;;;;;;8425527;28;20211;-60
2022/03/29 20:12:01;;;;;;;38.87;22.20;;;4.10;1.00;;;;;;8419617;28;20299;-60
2022/03/29 20:16:02;;;;;;;35.73;20.83;;;4.20;13.50;;;;;;8428138;28;20196;-62
2022/03/29 20:20:07;;;;;;;39.03;21.97;;;4.10;98.90;;;;;;8406879;28;20200;-60
2022/03/29 20:24:08;;;;;;;35.80;21.47;;;4.10;1.00;;;;;;8431778;28;20294;-61
2022/03/29 20:28:11;;;;;;;37.67;21.07;;;4.10;55.30;;;;;;8438718;28;20275;-62
2022/03/29 20:32:13;;;;;;;39.50;23.00;;;4.00;99.90;;;;;;8415035;28;20210;-61
2022/03/29 20:36:15;;;;;;;35.10;20.63;;;4.00;99.90;;;;;;8417081;28;20211;-61
2022/03/29 20:40:16;;;;;;;37.23;21.40;;;4.00;1.00;;;;;;8440825;28;20214;-60
2022/03/29 20:44:18;;;;;;;37.27;21.77;;;3.90;74.60;;;;;;8435297;28;20203;-62
2022/03/29 20:48:19;;;;;;;35.20;20.70;;;3.90;99.90;;;;;;8429796;28;20204;-61
2022/03/29 20:52:20;;;;;;;40.43;22.60;;;3.80;1.00;;;;;;8418525;28;20212;-60
2022/03/29 20:56:20;;;;;;;41.00;21.67;;;3.80;19.90;;;;;;8414722;28;20249;-60
2022/03/29 21:00:21;;;;;;;41.87;22.83;;;3.80;99.90;;;;;;8414867;28;20251;-61